sensor_id;sensor_type;location;lat;lon;timestamp;pressure;altitude;pressure_sealevel;temperature;humidity
26915;BME280;14480;52.608;13.416;2023-05-27T07:30:09;144918.06;;;3.80;52.21
26915;BME280;14480;52.608;13.416;2023-05-27T07:35:28;145014.22;;;4.20;50.64
26915;BME280;14480;52.608;13.416;2023-05-27T07:40:31;145059.13;;;4.38;49.13
26915;BME280;14480;52.608;13.416;2023-05-27T07:45:39;144798.28;;;3.32;52.20
26915;BME280;14480;52.608;13.416;2023-05-27T07:50:42;144699.75;;;2.91;52.36
26915;BME280;14480;52.608;13.416;2023-05-27T07:55:51;144926.84;;;3.84;49.86
26915;BME280;14480;52.608;13.416;2023-05-27T08:00:56;144924.34;;;3.83;50.30
26915;BME280;14480;52.608;13.416;2023-05-27T08:06:01;144780.84;;;3.25;49.82
26915;BME280;14480;52.608;13.416;2023-05-27T08:11:08;144568.81;;;2.38;51.33
26915;BME280;14480;52.608;13.416;2023-05-27T08:16:28;144537.66;;;2.25;52.09
26915;BME280;14480;52.608;13.416;2023-05-27T08:21:46;144464.13;;;1.95;53.30
26915;BME280;14480;52.608;13.416;2023-05-27T08:27:14;144460.38;;;1.94;53.55
26915;BME280;14480;52.608;13.416;2023-05-27T08:32:40;144535.19;;;2.24;52.98
26915;BME280;14480;52.608;13.416;2023-05-27T08:37:44;144429.22;;;1.81;51.84
26915;BME280;14480;52.608;13.416;2023-05-27T08:42:48;144303.44;;;1.30;53.73
26915;BME280;14480;52.608;13.416;2023-05-27T08:47:53;144313.38;;;1.34;52.96
26915;BME280;14480;52.608;13.416;2023-05-27T08:53:03;144238.63;;;1.03;52.44
26915;BME280;14480;52.608;13.416;2023-05-27T08:58:07;144304.69;;;1.30;51.99
26915;BME280;14480;52.608;13.416;2023-05-27T09:03:18;144271.06;;;1.16;52.08
26915;BME280;14480;52.608;13.416;2023-05-27T09:08:24;144418.03;;;1.77;51.48
26915;BME280;14480;52.608;13.416;2023-05-27T09:13:48;144509.00;;;2.14;50.79
26915;BME280;14480;52.608;13.416;2023-05-27T09:18:52;144371.91;;;1.58;49.47
26915;BME280;14480;52.608;13.416;2023-05-27T09:23:56;144315.88;;;1.35;49.79
26915;BME280;14480;52.608;13.416;2023-05-27T09:29:05;144300.94;;;1.29;49.65
26915;BME280;14480;52.608;13.416;2023-05-27T09:34:10;144239.88;;;1.04;50.58
26915;BME280;14480;52.608;13.416;2023-05-27T09:39:15;144314.63;;;1.34;49.20
26915;BME280;14480;52.608;13.416;2023-05-27T09:44:21;144462.88;;;1.95;49.44
26915;BME280;14480;52.608;13.416;2023-05-27T09:49:27;144454.16;;;1.91;49.23
26915;BME280;14480;52.608;13.416;2023-05-27T09:54:32;144317.13;;;1.35;49.80
26915;BME280;14480;52.608;13.416;2023-05-27T09:59:37;144476.59;;;2.00;49.70
26915;BME280;14480;52.608;13.416;2023-05-27T10:04:43;144421.78;;;1.78;49.99
26915;BME280;14480;52.608;13.416;2023-05-27T10:09:47;144491.53;;;2.07;49.81
26915;BME280;14480;52.608;13.416;2023-05-27T10:14:53;144459.13;;;1.93;48.95
26915;BME280;14480;52.608;13.416;2023-05-27T10:20:00;144442.97;;;1.87;49.07
26915;BME280;14480;52.608;13.416;2023-05-27T10:25:11;144466.59;;;1.96;48.70
26915;BME280;14480;52.608;13.416;2023-05-27T10:30:14;144526.47;;;2.21;50.76
26915;BME280;14480;52.608;13.416;2023-05-27T10:35:20;144485.31;;;2.04;50.71
26915;BME280;14480;52.608;13.416;2023-05-27T10:40:25;144510.25;;;2.14;51.11
26915;BME280;14480;52.608;13.416;2023-05-27T10:45:31;144580.03;;;2.43;50.24
26915;BME280;14480;52.608;13.416;2023-05-27T10:50:38;144509.00;;;2.14;50.68
26915;BME280;14480;52.608;13.416;2023-05-27T10:55:41;144647.38;;;2.70;50.94
26915;BME280;14480;52.608;13.416;2023-05-27T11:00:45;144682.28;;;2.84;49.43
26915;BME280;14480;52.608;13.416;2023-05-27T11:05:59;144652.38;;;2.72;49.56
26915;BME280;14480;52.608;13.416;2023-05-27T11:11:05;144634.88;;;2.65;50.76
26915;BME280;14480;52.608;13.416;2023-05-27T11:16:08;144643.66;;;2.69;50.20
26915;BME280;14480;52.608;13.416;2023-05-27T11:21:14;144612.50;;;2.56;49.22
26915;BME280;14480;52.608;13.416;2023-05-27T11:26:19;144611.25;;;2.55;49.18
26915;BME280;14480;52.608;13.416;2023-05-27T11:31:26;144636.13;;;2.66;49.41
26915;BME280;14480;52.608;13.416;2023-05-27T11:36:31;144612.50;;;2.56;49.80
26915;BME280;14480;52.608;13.416;2023-05-27T11:41:35;144651.13;;;2.72;49.96
26915;BME280;14480;52.608;13.416;2023-05-27T11:46:40;144724.72;;;3.02;52.84
26915;BME280;14480;52.608;13.416;2023-05-27T11:51:45;144837.00;;;3.47;50.39
26915;BME280;14480;52.608;13.416;2023-05-27T11:56:49;144893.09;;;3.70;49.32
26915;BME280;14480;52.608;13.416;2023-05-27T12:01:53;144873.16;;;3.62;48.48
26915;BME280;14480;52.608;13.416;2023-05-27T12:07:02;144840.72;;;3.49;48.04
26915;BME280;14480;52.608;13.416;2023-05-27T12:12:22;144764.63;;;3.18;48.92
26915;BME280;14480;52.608;13.416;2023-05-27T12:17:25;144734.69;;;3.06;49.26
26915;BME280;14480;52.608;13.416;2023-05-27T12:22:30;144734.69;;;3.06;49.20
26915;BME280;14480;52.608;13.416;2023-05-27T12:27:34;144795.78;;;3.31;49.24
26915;BME280;14480;52.608;13.416;2023-05-27T12:32:39;144894.41;;;3.71;48.72
26915;BME280;14480;52.608;13.416;2023-05-27T12:37:45;144955.53;;;3.96;48.94
26915;BME280;14480;52.608;13.416;2023-05-27T12:42:48;144901.88;;;3.74;48.68
26915;BME280;14480;52.608;13.416;2023-05-27T12:47:52;144928.09;;;3.85;47.97
26915;BME280;14480;52.608;13.416;2023-05-27T12:52:58;144839.50;;;3.48;49.25
26915;BME280;14480;52.608;13.416;2023-05-27T12:58:02;144808.31;;;3.36;49.35
26915;BME280;14480;52.608;13.416;2023-05-27T13:03:06;144844.47;;;3.50;48.28
26915;BME280;14480;52.608;13.416;2023-05-27T13:08:15;144893.09;;;3.70;48.81
26915;BME280;14480;52.608;13.416;2023-05-27T13:13:18;144990.47;;;4.10;48.56
26915;BME280;14480;52.608;13.416;2023-05-27T13:18:24;144903.13;;;3.74;48.36
26915;BME280;14480;52.608;13.416;2023-05-27T13:23:29;144851.94;;;3.54;48.66
26915;BME280;14480;52.608;13.416;2023-05-27T13:28:33;144833.22;;;3.46;48.17
26915;BME280;14480;52.608;13.416;2023-05-27T13:33:36;144881.88;;;3.66;48.38
26915;BME280;14480;52.608;13.416;2023-05-27T13:38:43;144966.75;;;4.00;47.52
26915;BME280;14480;52.608;13.416;2023-05-27T13:43:46;144931.81;;;3.86;47.37
26915;BME280;14480;52.608;13.416;2023-05-27T13:48:49;144894.41;;;3.71;47.57
26915;BME280;14480;52.608;13.416;2023-05-27T13:53:55;144846.97;;;3.51;47.81
26915;BME280;14480;52.608;13.416;2023-05-27T13:59:01;144823.25;;;3.42;47.88
26915;BME280;14480;52.608;13.416;2023-05-27T14:04:05;144886.88;;;3.68;47.89
26915;BME280;14480;52.608;13.416;2023-05-27T14:09:10;144924.34;;;3.83;47.35
26915;BME280;14480;52.608;13.416;2023-05-27T14:14:14;144946.78;;;3.92;47.88
26915;BME280;14480;52.608;13.416;2023-05-27T14:19:18;144920.56;;;3.81;47.16
26915;BME280;14480;52.608;13.416;2023-05-27T14:24:22;144886.88;;;3.68;47.17
26915;BME280;14480;52.608;13.416;2023-05-27T14:29:28;144919.31;;;3.81;48.65
26915;BME280;14480;52.608;13.416;2023-05-27T14:34:36;144885.63;;;3.67;49.71
26915;BME280;14480;52.608;13.416;2023-05-27T14:39:43;144873.16;;;3.62;48.54
26915;BME280;14480;52.608;13.416;2023-05-27T14:44:46;144905.59;;;3.75;50.59
26915;BME280;14480;52.608;13.416;2023-05-27T14:49:49;144914.34;;;3.79;51.28
26915;BME280;14480;52.608;13.416;2023-05-27T14:54:59;144918.06;;;3.80;50.66
26915;BME280;14480;52.608;13.416;2023-05-27T15:00:05;144950.56;;;3.94;50.94
26915;BME280;14480;52.608;13.416;2023-05-27T15:05:10;144971.75;;;4.02;50.59
26915;BME280;14480;52.608;13.416;2023-05-27T15:10:17;144981.75;;;4.06;50.40
26915;BME280;14480;52.608;13.416;2023-05-27T15:15:21;145017.97;;;4.21;51.21
26915;BME280;14480;52.608;13.416;2023-05-27T15:20:26;144928.09;;;3.85;51.37
26915;BME280;14480;52.608;13.416;2023-05-27T15:25:31;144903.13;;;3.74;51.22
26915;BME280;14480;52.608;13.416;2023-05-27T15:30:37;144914.34;;;3.79;52.26
26915;BME280;14480;52.608;13.416;2023-05-27T15:35:40;144955.53;;;3.96;52.52
26915;BME280;14480;52.608;13.416;2023-05-27T15:40:45;144956.78;;;3.96;51.23
26915;BME280;14480;52.608;13.416;2023-05-27T15:45:49;144926.84;;;3.84;50.54
26915;BME280;14480;52.608;13.416;2023-05-27T15:51:05;144971.75;;;4.02;50.59
26915;BME280;14480;52.608;13.416;2023-05-27T15:56:11;144992.97;;;4.11;49.66
26915;BME280;14480;52.608;13.416;2023-05-27T16:01:14;144958.03;;;3.97;50.13
26915;BME280;14480;52.608;13.416;2023-05-27T16:06:20;144931.81;;;3.86;50.55
26915;BME280;14480;52.608;13.416;2023-05-27T16:11:25;144870.69;;;3.61;50.97
26915;BME280;14480;52.608;13.416;2023-05-27T16:16:28;144891.84;;;3.70;51.23
26915;BME280;14480;52.608;13.416;2023-05-27T16:21:32;144895.66;;;3.71;51.97
26915;BME280;14480;52.608;13.416;2023-05-27T16:26:39;144876.91;;;3.64;51.71
26915;BME280;14480;52.608;13.416;2023-05-27T16:31:43;144829.47;;;3.44;51.53
26915;BME280;14480;52.608;13.416;2023-05-27T16:36:46;144807.00;;;3.35;52.25
26915;BME280;14480;52.608;13.416;2023-05-27T16:41:51;144819.50;;;3.40;51.84
26915;BME280;14480;52.608;13.416;2023-05-27T16:46:54;144809.53;;;3.36;51.33
26915;BME280;14480;52.608;13.416;2023-05-27T16:52:00;144775.81;;;3.22;50.82
26915;BME280;14480;52.608;13.416;2023-05-27T16:57:05;144759.63;;;3.16;50.49
26915;BME280;14480;52.608;13.416;2023-05-27T17:02:08;144773.34;;;3.21;50.69
26915;BME280;14480;52.608;13.416;2023-05-27T17:07:13;144769.59;;;3.20;49.77
26915;BME280;14480;52.608;13.416;2023-05-27T17:12:17;144784.59;;;3.26;50.73
26915;BME280;14480;52.608;13.416;2023-05-27T17:17:23;144787.09;;;3.27;51.67
26915;BME280;14480;52.608;13.416;2023-05-27T17:22:29;144764.63;;;3.18;53.31
26915;BME280;14480;52.608;13.416;2023-05-27T17:27:34;144724.72;;;3.02;55.28
26915;BME280;14480;52.608;13.416;2023-05-27T17:32:40;144687.28;;;2.86;55.86
26915;BME280;14480;52.608;13.416;2023-05-27T17:37:43;144656.09;;;2.74;57.65
26915;BME280;14480;52.608;13.416;2023-05-27T17:42:49;144634.88;;;2.65;58.23
26915;BME280;14480;52.608;13.416;2023-05-27T17:47:52;144638.66;;;2.67;58.33
26915;BME280;14480;52.608;13.416;2023-05-27T17:52:58;144629.91;;;2.63;57.85
26915;BME280;14480;52.608;13.416;2023-05-27T17:58:03;144606.22;;;2.53;59.13
26915;BME280;14480;52.608;13.416;2023-05-27T18:03:06;144582.56;;;2.44;60.33
26915;BME280;14480;52.608;13.416;2023-05-27T18:08:10;144550.13;;;2.30;60.92
26915;BME280;14480;52.608;13.416;2023-05-27T18:13:23;144521.44;;;2.19;61.84
26915;BME280;14480;52.608;13.416;2023-05-27T18:18:28;144510.25;;;2.14;62.41
26915;BME280;14480;52.608;13.416;2023-05-27T18:23:34;144466.59;;;1.96;63.00
26915;BME280;14480;52.608;13.416;2023-05-27T18:28:41;144428.00;;;1.81;63.27
26915;BME280;14480;52.608;13.416;2023-05-27T18:33:44;144400.56;;;1.69;63.43
26915;BME280;14480;52.608;13.416;2023-05-27T18:38:48;144378.13;;;1.60;63.88
26915;BME280;14480;52.608;13.416;2023-05-27T18:43:55;144338.28;;;1.44;64.58
26915;BME280;14480;52.608;13.416;2023-05-27T18:49:00;144317.13;;;1.35;65.39
26915;BME280;14480;52.608;13.416;2023-05-27T18:54:03;144288.47;;;1.24;65.96
26915;BME280;14480;52.608;13.416;2023-05-27T18:59:09;144249.88;;;1.08;66.70
26915;BME280;14480;52.608;13.416;2023-05-27T19:04:12;144212.50;;;0.93;67.14
26915;BME280;14480;52.608;13.416;2023-05-27T19:09:16;144171.44;;;0.76;67.82
26915;BME280;14480;52.608;13.416;2023-05-27T19:14:21;144139.06;;;0.63;68.56
26915;BME280;14480;52.608;13.416;2023-05-27T19:19:25;144086.78;;;0.41;69.07
26915;BME280;14480;52.608;13.416;2023-05-27T19:24:28;144045.72;;;0.24;69.54
26915;BME280;14480;52.608;13.416;2023-05-27T19:29:33;144022.09;;;0.15;69.72
26915;BME280;14480;52.608;13.416;2023-05-27T19:34:37;143981.00;;;-0.02;70.60
26915;BME280;14480;52.608;13.416;2023-05-27T19:39:40;143952.38;;;-0.14;70.62
26915;BME280;14480;52.608;13.416;2023-05-27T19:44:45;143925.00;;;-0.25;71.38
26915;BME280;14480;52.608;13.416;2023-05-27T19:49:49;143885.22;;;-0.41;72.55
26915;BME280;14480;52.608;13.416;2023-05-27T19:54:53;143840.44;;;-0.60;72.78
26915;BME280;14480;52.608;13.416;2023-05-27T19:59:58;143813.09;;;-0.71;73.12
26915;BME280;14480;52.608;13.416;2023-05-27T20:05:05;143789.50;;;-0.80;74.34
26915;BME280;14480;52.608;13.416;2023-05-27T20:10:10;143741.00;;;-1.00;75.60
26915;BME280;14480;52.608;13.416;2023-05-27T20:15:15;143719.84;;;-1.09;76.51
26915;BME280;14480;52.608;13.416;2023-05-27T20:20:20;143683.84;;;-1.24;76.85
26915;BME280;14480;52.608;13.416;2023-05-27T20:25:31;143647.81;;;-1.38;77.56
26915;BME280;14480;52.608;13.416;2023-05-27T20:30:36;143611.72;;;-1.53;78.26
26915;BME280;14480;52.608;13.416;2023-05-27T20:35:40;143586.88;;;-1.63;78.82
26915;BME280;14480;52.608;13.416;2023-05-27T20:40:47;143560.78;;;-1.74;79.64
26915;BME280;14480;52.608;13.416;2023-05-27T20:45:52;143540.94;;;-1.82;79.91
26915;BME280;14480;52.608;13.416;2023-05-27T20:50:56;143498.69;;;-1.99;81.04
26915;BME280;14480;52.608;13.416;2023-05-27T20:55:59;143456.47;;;-2.17;82.70
26915;BME280;14480;52.608;13.416;2023-05-27T21:01:04;143431.63;;;-2.27;83.65
26915;BME280;14480;52.608;13.416;2023-05-27T21:06:07;143401.84;;;-2.39;84.33
26915;BME280;14480;52.608;13.416;2023-05-27T21:11:13;143377.00;;;-2.49;85.04
26915;BME280;14480;52.608;13.416;2023-05-27T21:16:20;143370.81;;;-2.52;85.10
